createdAt,value
2022-12-03T00:01:34.283Z,76.29
2022-12-03T00:04:03.094Z,76.23
2022-12-03T00:06:34.666Z,76.15
2022-12-03T00:09:04.559Z,76.12
2022-12-03T00:11:33.652Z,76.18
2022-12-03T00:14:05.006Z,76.20
2022-12-03T00:16:34.147Z,76.14
2022-12-03T00:19:02.769Z,76.22
2022-12-03T00:21:31.475Z,76.09
2022-12-03T00:24:00.083Z,76.16
2022-12-03T00:26:28.819Z,76.27
2022-12-03T00:28:57.586Z,76.29
2022-12-03T00:31:26.591Z,76.26
2022-12-03T00:33:55.710Z,76.25
2022-12-03T00:36:24.085Z,76.18
2022-12-03T00:38:52.824Z,76.19
2022-12-03T00:41:21.076Z,76.17
2022-12-03T00:43:49.491Z,76.19
2022-12-03T00:46:21.259Z,76.22
2022-12-03T00:48:51.950Z,76.27
2022-12-03T00:51:20.826Z,76.16
2022-12-03T00:53:49.551Z,76.27
2022-12-03T00:56:17.940Z,76.18
2022-12-03T00:58:49.291Z,76.25
2022-12-03T01:01:17.680Z,76.24
2022-12-03T01:03:46.552Z,76.31
2022-12-03T01:06:18.819Z,76.34
2022-12-03T01:08:47.375Z,76.31
2022-12-03T01:11:34.087Z,76.19
2022-12-03T01:14:03.184Z,76.23
2022-12-03T01:16:33.049Z,76.39
2022-12-03T01:19:01.862Z,76.37
2022-12-03T01:21:30.704Z,76.36
2022-12-03T01:23:59.348Z,76.44
2022-12-03T01:26:27.966Z,76.46
2022-12-03T01:28:57.553Z,76.29
2022-12-03T01:31:44.849Z,76.32
2022-12-03T01:34:16.979Z,76.32
2022-12-03T01:36:45.440Z,76.26
2022-12-03T01:39:17.332Z,76.16
2022-12-03T01:41:48.002Z,76.29
2022-12-03T01:44:19.882Z,76.18
2022-12-03T01:46:51.035Z,76.22
2022-12-03T01:49:22.245Z,76.41
2022-12-03T01:51:54.793Z,76.41
2022-12-03T01:54:36.423Z,76.22
2022-12-03T01:57:05.543Z,76.27
2022-12-03T01:59:38.705Z,76.33
2022-12-03T02:02:13.862Z,76.46
2022-12-03T02:04:45.247Z,76.35
2022-12-03T02:07:22.208Z,76.37
2022-12-03T02:09:50.788Z,76.59
2022-12-03T02:12:22.947Z,76.47
2022-12-03T02:14:54.912Z,76.25
2022-12-03T02:17:25.660Z,76.39
2022-12-03T02:19:55.166Z,76.20
2022-12-03T02:22:40.544Z,76.19
2022-12-03T02:25:15.662Z,76.41
2022-12-03T02:27:44.873Z,76.40
2022-12-03T02:30:16.232Z,76.41
2022-12-03T02:32:44.816Z,76.35
2022-12-03T02:35:32.621Z,76.33
2022-12-03T02:38:14.151Z,76.38
2022-12-03T02:40:45.620Z,76.37
2022-12-03T02:43:19.459Z,76.28
2022-12-03T02:45:51.261Z,76.47
2022-12-03T02:48:23.631Z,76.45
2022-12-03T02:50:54.433Z,76.44
2022-12-03T02:53:27.104Z,76.44
2022-12-03T02:55:57.881Z,76.38
2022-12-03T02:58:27.997Z,76.37
2022-12-03T03:00:58.594Z,76.40
2022-12-03T03:03:30.052Z,76.32
2022-12-03T03:06:01.642Z,76.35
2022-12-03T03:08:33.564Z,76.44
2022-12-03T03:11:03.183Z,76.46
2022-12-03T03:13:33.231Z,76.42
2022-12-03T03:16:02.922Z,76.56
2022-12-03T03:18:35.321Z,76.52
2022-12-03T03:21:04.922Z,76.54
2022-12-03T03:23:33.829Z,76.66
2022-12-03T03:26:05.166Z,76.55
2022-12-03T03:28:37.821Z,76.61
2022-12-03T03:31:09.203Z,76.54
2022-12-03T03:33:39.322Z,76.53
2022-12-03T03:36:09.513Z,76.57
2022-12-03T03:38:39.015Z,76.43
2022-12-03T03:41:10.169Z,76.34
2022-12-03T03:43:40.617Z,76.34
2022-12-03T03:46:10.635Z,76.38
2022-12-03T03:48:42.744Z,76.43
2022-12-03T03:51:12.252Z,76.61
2022-12-03T03:53:43.012Z,76.67
2022-12-03T03:56:12.386Z,76.52
2022-12-03T03:58:40.820Z,76.41
2022-12-03T04:01:11.326Z,76.54
2022-12-03T04:03:39.963Z,76.52
2022-12-03T04:06:10.725Z,76.43
2022-12-03T04:08:39.141Z,76.39
2022-12-03T04:11:26.727Z,76.41
2022-12-03T04:13:55.252Z,76.32
2022-12-03T04:16:23.751Z,76.49
2022-12-03T04:18:52.202Z,76.44
2022-12-03T04:21:41.645Z,76.55
2022-12-03T04:24:11.422Z,76.48
2022-12-03T04:26:58.621Z,76.40
2022-12-03T04:29:29.802Z,76.59
2022-12-03T04:32:17.863Z,76.44
2022-12-03T04:35:04.678Z,76.37
2022-12-03T04:37:33.361Z,76.42
2022-12-03T04:40:22.381Z,76.40
2022-12-03T04:42:51.076Z,76.51
2022-12-03T04:45:19.866Z,76.63
2022-12-03T04:47:48.626Z,76.43
2022-12-03T04:50:32.480Z,76.38
2022-12-03T04:53:00.910Z,76.46
2022-12-03T04:55:29.773Z,76.48
2022-12-03T04:57:58.123Z,76.55
2022-12-03T05:00:26.516Z,76.62
2022-12-03T05:02:57.158Z,76.59
2022-12-03T05:05:25.816Z,76.68
2022-12-03T05:07:54.458Z,76.55
2022-12-03T05:10:23.109Z,76.58
2022-12-03T05:12:51.734Z,76.69
2022-12-03T05:15:20.450Z,76.64
2022-12-03T05:17:49.354Z,76.64
2022-12-03T05:20:45.848Z,76.53
2022-12-03T05:23:18.204Z,76.68
2022-12-03T05:25:46.766Z,76.51
2022-12-03T05:28:17.711Z,76.50
2022-12-03T05:30:46.096Z,76.39
2022-12-03T05:33:17.324Z,76.60
2022-12-03T05:35:46.497Z,76.60
2022-12-03T05:38:15.732Z,76.64
2022-12-03T05:40:44.488Z,76.56
2022-12-03T05:43:12.933Z,76.56
2022-12-03T05:45:43.576Z,76.44
2022-12-03T05:48:15.256Z,76.49
2022-12-03T05:50:45.598Z,76.53
2022-12-03T05:53:20.591Z,76.63
2022-12-03T05:55:49.017Z,76.47
2022-12-03T05:58:17.382Z,76.68
2022-12-03T06:00:46.112Z,76.68
2022-12-03T06:03:17.232Z,76.66
2022-12-03T06:05:45.694Z,76.59
2022-12-03T06:08:16.310Z,76.66
2022-12-03T06:10:47.788Z,76.67
2022-12-03T06:13:16.852Z,76.57
2022-12-03T06:15:45.348Z,76.68
2022-12-03T06:18:14.009Z,76.55
2022-12-03T06:20:44.363Z,76.45
2022-12-03T06:23:12.763Z,76.43
2022-12-03T06:25:41.166Z,76.50
2022-12-03T06:28:09.902Z,76.49
2022-12-03T06:30:38.257Z,76.69
2022-12-03T06:33:11.365Z,76.59
2022-12-03T06:35:39.955Z,76.52
2022-12-03T06:38:10.417Z,76.64
2022-12-03T06:40:38.813Z,76.48
2022-12-03T06:43:07.528Z,76.61
2022-12-03T06:45:36.349Z,76.60
2022-12-03T06:48:08.795Z,76.48
2022-12-03T06:50:43.324Z,76.68
2022-12-03T06:53:12.115Z,76.54
2022-12-03T06:55:40.617Z,76.51
2022-12-03T06:58:09.005Z,76.66
2022-12-03T07:00:37.510Z,76.56
2022-12-03T07:03:06.823Z,76.72
2022-12-03T07:05:35.390Z,76.72
2022-12-03T07:08:05.937Z,76.71
2022-12-03T07:10:34.314Z,76.81
2022-12-03T07:13:03.765Z,76.74
2022-12-03T07:15:32.830Z,76.63
2022-12-03T07:18:01.221Z,76.75
2022-12-03T07:20:29.729Z,76.59
2022-12-03T07:22:59.160Z,76.51
2022-12-03T07:25:28.455Z,76.58
2022-12-03T07:27:57.032Z,76.60
2022-12-03T07:30:27.432Z,76.59
2022-12-03T07:32:55.939Z,76.60
2022-12-03T07:35:24.798Z,76.77
2022-12-03T07:37:53.266Z,76.59
2022-12-03T07:40:21.701Z,76.72
2022-12-03T07:42:50.035Z,76.69
2022-12-03T07:45:18.828Z,76.67
2022-12-03T07:47:47.427Z,76.72
2022-12-03T07:50:20.497Z,76.63
2022-12-03T07:52:51.136Z,76.59
2022-12-03T07:55:19.540Z,76.52
2022-12-03T07:57:48.373Z,76.68
2022-12-03T08:00:20.946Z,76.58
2022-12-03T08:02:49.733Z,76.63
2022-12-03T08:05:22.449Z,76.75
2022-12-03T08:07:51.192Z,76.71
2022-12-03T08:10:19.988Z,76.72
2022-12-03T08:12:48.459Z,76.81
2022-12-03T08:15:23.443Z,76.79
2022-12-03T08:17:58.060Z,76.56
2022-12-03T08:20:28.516Z,76.57
2022-12-03T08:22:59.651Z,76.66
2022-12-03T08:25:30.935Z,76.79
2022-12-03T08:28:12.109Z,76.76
2022-12-03T08:30:41.252Z,76.76
2022-12-03T08:33:23.580Z,76.74
2022-12-03T08:35:52.394Z,76.77
2022-12-03T08:38:24.733Z,76.77
2022-12-03T08:40:55.294Z,76.86
2022-12-03T08:43:25.840Z,76.93
2022-12-03T08:45:55.949Z,76.79
2022-12-03T08:48:36.320Z,76.81
2022-12-03T08:51:13.692Z,76.71
2022-12-03T08:53:47.462Z,76.67
2022-12-03T08:56:24.539Z,76.74
2022-12-03T08:58:55.193Z,76.63
2022-12-03T09:01:44.705Z,76.80
2022-12-03T09:04:23.539Z,76.76
2022-12-03T09:06:53.854Z,76.69
2022-12-03T09:09:23.153Z,76.86
2022-12-03T09:11:52.497Z,76.77
2022-12-03T09:14:22.108Z,76.83
2022-12-03T09:16:54.985Z,76.84
2022-12-03T09:19:25.272Z,76.87
2022-12-03T09:21:54.473Z,76.74
2022-12-03T09:24:25.799Z,76.91
2022-12-03T09:26:54.813Z,76.96
2022-12-03T09:29:24.527Z,76.87
2022-12-03T09:31:54.849Z,76.95
2022-12-03T09:34:23.337Z,77.07
2022-12-03T09:36:51.963Z,76.98
2022-12-03T09:39:20.476Z,76.94
2022-12-03T09:41:50.034Z,76.93
2022-12-03T09:44:22.768Z,76.94
2022-12-03T09:46:51.841Z,77.03
2022-12-03T09:49:20.571Z,77.17
2022-12-03T09:51:49.344Z,76.98
2022-12-03T09:54:23.633Z,76.73
2022-12-03T09:56:54.019Z,76.82
2022-12-03T09:59:26.875Z,76.89
2022-12-03T10:01:55.852Z,76.88
2022-12-03T10:04:24.761Z,77.00
2022-12-03T10:06:53.330Z,77.09
2022-12-03T10:09:26.615Z,77.35
2022-12-03T10:11:56.483Z,77.49
2022-12-03T10:14:27.069Z,77.21
2022-12-03T10:16:56.598Z,77.27
2022-12-03T10:19:28.723Z,77.20
2022-12-03T10:21:57.731Z,77.08
2022-12-03T10:24:33.388Z,77.03
2022-12-03T10:27:04.044Z,77.07
2022-12-03T10:29:35.069Z,77.10
2022-12-03T10:32:07.053Z,77.05
2022-12-03T10:34:42.272Z,77.08
2022-12-03T10:37:14.433Z,77.10
2022-12-03T10:40:01.174Z,76.97
2022-12-03T10:42:32.815Z,77.05
2022-12-03T10:45:17.896Z,77.04
2022-12-03T10:48:28.528Z,77.20
2022-12-03T10:51:03.804Z,77.07
2022-12-03T10:53:35.297Z,77.05
2022-12-03T10:56:06.779Z,76.90
2022-12-03T10:58:39.381Z,76.97
2022-12-03T11:01:18.711Z,77.19
2022-12-03T11:03:48.500Z,77.07
2022-12-03T11:06:21.689Z,77.15
2022-12-03T11:08:58.449Z,77.16
2022-12-03T11:11:31.872Z,77.09
2022-12-03T11:14:03.781Z,77.01
2022-12-03T11:17:06.747Z,77.04
2022-12-03T11:19:49.495Z,76.96
2022-12-03T11:22:26.343Z,77.04
2022-12-03T11:25:26.836Z,77.09
2022-12-03T11:28:34.846Z,77.09
2022-12-03T11:31:11.175Z,76.94
2022-12-03T11:33:42.809Z,77.11
2022-12-03T11:36:54.082Z,77.10
2022-12-03T11:39:52.224Z,77.05
2022-12-03T11:42:40.115Z,77.18
2022-12-03T11:45:18.776Z,77.19
2022-12-03T11:48:03.917Z,77.10
2022-12-03T11:50:39.577Z,77.13
2022-12-03T11:53:19.268Z,77.21
2022-12-03T11:55:51.825Z,77.19
2022-12-03T11:58:26.075Z,77.02
2022-12-03T12:00:57.177Z,77.06
2022-12-03T12:03:28.222Z,77.20
2022-12-03T12:06:10.288Z,77.27
2022-12-03T12:08:40.675Z,77.32
2022-12-03T12:11:19.234Z,77.07
2022-12-03T12:13:54.882Z,77.16
2022-12-03T12:16:49.575Z,77.10
2022-12-03T12:19:36.355Z,77.22
2022-12-03T12:22:17.435Z,77.24
2022-12-03T12:24:52.906Z,77.21
2022-12-03T12:27:35.901Z,77.27
2022-12-03T12:30:08.046Z,76.98
2022-12-03T12:32:45.479Z,77.46
2022-12-03T12:35:23.985Z,77.32
2022-12-03T12:37:59.203Z,77.40
2022-12-03T12:40:31.449Z,77.29
2022-12-03T12:43:08.260Z,77.48
2022-12-03T12:45:43.895Z,77.43
2022-12-03T12:48:21.859Z,77.32
2022-12-03T12:50:59.211Z,77.25
2022-12-03T12:53:30.981Z,77.25
2022-12-03T12:56:02.158Z,77.29
2022-12-03T12:58:32.966Z,77.13
2022-12-03T13:01:06.136Z,77.25
2022-12-03T13:03:38.005Z,77.29
2022-12-03T13:06:11.047Z,77.22
2022-12-03T13:08:43.982Z,77.19
2022-12-03T13:11:29.665Z,77.09
2022-12-03T13:14:00.759Z,77.17
2022-12-03T13:16:36.187Z,77.32
2022-12-03T13:19:20.449Z,77.37
2022-12-03T13:21:50.474Z,77.33
2022-12-03T13:24:30.315Z,77.25
2022-12-03T13:27:00.892Z,77.29
2022-12-03T13:29:29.265Z,77.41
2022-12-03T13:32:02.809Z,77.20
2022-12-03T13:34:34.645Z,77.30
2022-12-03T13:37:13.512Z,77.23
2022-12-03T13:39:49.623Z,77.23
2022-12-03T13:42:41.720Z,77.38
2022-12-03T13:45:35.148Z,77.30
2022-12-03T13:48:17.342Z,77.33
2022-12-03T13:50:46.349Z,77.30
2022-12-03T13:53:23.696Z,77.14
2022-12-03T13:55:57.607Z,77.22
2022-12-03T13:58:26.616Z,77.19
2022-12-03T14:00:55.128Z,77.16
2022-12-03T14:03:23.567Z,77.03
2022-12-03T14:05:51.951Z,77.14
2022-12-03T14:08:22.821Z,77.35
2022-12-03T14:10:59.884Z,77.36
2022-12-03T14:13:31.118Z,77.30
2022-12-03T14:15:59.848Z,77.44
2022-12-03T14:18:30.665Z,77.28
2022-12-03T14:20:59.362Z,77.39
2022-12-03T14:23:27.884Z,77.19
2022-12-03T14:25:58.911Z,77.26
2022-12-03T14:28:33.014Z,77.23
2022-12-03T14:31:01.579Z,77.27
2022-12-03T14:33:30.515Z,77.25
2022-12-03T14:36:00.498Z,77.16
2022-12-03T14:38:29.149Z,77.41
2022-12-03T14:40:57.761Z,77.19
2022-12-03T14:43:26.386Z,77.26
2022-12-03T14:45:54.828Z,77.29
2022-12-03T14:48:23.738Z,77.27
2022-12-03T14:50:52.481Z,77.27
2022-12-03T14:53:27.425Z,77.44
2022-12-03T14:55:58.449Z,77.19
2022-12-03T14:58:26.967Z,77.26
2022-12-03T15:00:57.794Z,77.20
2022-12-03T15:03:26.463Z,77.27
2022-12-03T15:05:55.745Z,77.29
2022-12-03T15:08:28.244Z,77.20
2022-12-03T15:18:53.217Z,77.43
2022-12-03T15:21:21.659Z,77.50
2022-12-03T15:23:50.325Z,77.45
2022-12-03T15:26:22.357Z,77.40
2022-12-03T15:28:50.812Z,77.41
2022-12-03T15:31:20.380Z,77.34
2022-12-03T15:33:52.008Z,77.27
2022-12-03T15:36:22.968Z,77.46
2022-12-03T15:38:51.280Z,77.32
2022-12-03T15:41:24.228Z,77.27
2022-12-03T15:44:01.756Z,77.36
2022-12-03T15:46:39.320Z,77.41
2022-12-03T15:49:10.616Z,77.45
2022-12-03T15:51:39.487Z,77.50
2022-12-03T15:54:08.341Z,77.48
2022-12-03T15:56:39.817Z,77.50
2022-12-03T15:59:08.241Z,77.51
2022-12-03T16:01:38.911Z,77.49
2022-12-03T16:04:07.320Z,77.49
2022-12-03T16:06:35.679Z,77.52
2022-12-03T16:09:04.821Z,77.41
2022-12-03T16:11:36.265Z,77.33
2022-12-03T16:14:05.111Z,77.38
2022-12-03T16:16:36.385Z,77.37
2022-12-03T16:19:05.100Z,77.47
2022-12-03T16:21:34.769Z,77.52
2022-12-03T16:31:37.483Z,77.57
2022-12-03T16:34:21.653Z,77.64
2022-12-03T16:36:53.988Z,77.67
2022-12-03T16:39:25.188Z,77.61
2022-12-03T16:41:56.680Z,77.57
2022-12-03T16:44:43.099Z,77.43
2022-12-03T16:47:12.147Z,77.45
2022-12-03T16:49:41.040Z,77.54
2022-12-03T16:52:10.844Z,77.50
2022-12-03T16:54:43.743Z,77.68
2022-12-03T16:57:12.453Z,77.62
2022-12-03T16:59:47.711Z,77.52
2022-12-03T17:02:27.136Z,77.63
2022-12-03T17:04:56.426Z,77.56
2022-12-03T17:07:30.972Z,77.55
2022-12-03T17:10:05.972Z,77.66
2022-12-03T17:13:01.174Z,77.70
2022-12-03T17:15:28.859Z,77.62
2022-12-03T17:17:58.162Z,77.77
2022-12-03T17:20:29.176Z,77.70
2022-12-03T17:22:58.989Z,77.61
2022-12-03T17:25:34.819Z,77.65
2022-12-03T17:28:08.982Z,77.74
2022-12-03T17:30:46.112Z,77.63
2022-12-03T17:33:17.817Z,77.73
2022-12-03T17:35:47.444Z,77.64
2022-12-03T17:38:16.717Z,77.60
2022-12-03T17:40:45.446Z,77.69
2022-12-03T17:43:14.604Z,77.77
2022-12-03T17:45:52.306Z,77.74
2022-12-03T17:48:23.192Z,77.72
2022-12-03T17:50:57.657Z,77.57
2022-12-03T17:53:29.878Z,77.73
2022-12-03T17:56:01.658Z,77.66
2022-12-03T17:58:33.400Z,77.78
2022-12-03T18:01:03.365Z,77.77
2022-12-03T18:03:35.704Z,77.65
2022-12-03T18:06:08.806Z,77.73
2022-12-03T18:08:38.801Z,77.79
2022-12-03T18:11:13.077Z,77.87
2022-12-03T18:13:47.869Z,77.72
2022-12-03T18:16:17.403Z,77.74
2022-12-03T18:18:56.245Z,77.71
2022-12-03T18:21:30.001Z,77.59
2022-12-03T18:24:02.488Z,77.71
2022-12-03T18:26:35.847Z,77.80
2022-12-03T18:29:06.439Z,77.79
2022-12-03T18:31:37.315Z,77.73
2022-12-03T18:34:10.377Z,77.75
2022-12-03T18:36:39.333Z,77.77
2022-12-03T18:39:17.873Z,77.87
2022-12-03T18:41:49.543Z,77.83
2022-12-03T18:44:24.273Z,77.81
2022-12-03T18:46:59.607Z,77.83
2022-12-03T18:49:29.329Z,77.90
2022-12-03T18:52:02.374Z,77.84
2022-12-03T18:54:31.407Z,77.92
2022-12-03T18:57:00.254Z,77.89
2022-12-03T18:59:32.688Z,77.95
2022-12-03T19:02:04.989Z,77.93
2022-12-03T19:04:38.284Z,77.89
2022-12-03T19:07:07.036Z,77.88
2022-12-03T19:09:41.942Z,77.94
2022-12-03T19:12:15.003Z,77.91
2022-12-03T19:14:52.267Z,77.89
2022-12-03T19:17:21.427Z,77.98
2022-12-03T19:19:50.486Z,77.95
2022-12-03T19:22:19.207Z,77.88
2022-12-03T19:24:53.692Z,77.96
2022-12-03T19:27:22.603Z,78.04
2022-12-03T19:29:54.409Z,77.93
2022-12-03T19:32:25.444Z,77.93
2022-12-03T19:35:05.024Z,77.98
2022-12-03T19:37:38.671Z,78.13
2022-12-03T19:40:11.017Z,78.13
2022-12-03T19:42:40.363Z,78.08
2022-12-03T19:45:10.535Z,78.26
2022-12-03T19:47:41.029Z,78.04
2022-12-03T19:50:22.351Z,78.11
2022-12-03T19:52:53.010Z,77.91
2022-12-03T19:55:21.874Z,78.12
2022-12-03T19:57:54.207Z,78.11
2022-12-03T20:00:30.399Z,77.92
2022-12-03T20:02:59.125Z,78.02
2022-12-03T20:05:33.475Z,78.06
2022-12-03T20:08:06.566Z,77.98
2022-12-03T20:10:36.215Z,78.11
2022-12-03T20:13:06.999Z,78.10
2022-12-03T20:15:40.340Z,77.96
2022-12-03T20:18:11.904Z,78.05
2022-12-03T20:20:40.520Z,78.03
2022-12-03T20:23:11.836Z,78.11
2022-12-03T20:25:45.837Z,78.26
2022-12-03T20:28:17.283Z,78.12
2022-12-03T20:30:58.432Z,78.08
2022-12-03T20:33:27.254Z,78.17
2022-12-03T20:36:02.053Z,78.19
2022-12-03T20:38:31.710Z,78.22
2022-12-03T20:41:07.877Z,78.29
2022-12-03T20:43:41.670Z,78.19
2022-12-03T20:46:17.490Z,78.24
2022-12-03T20:48:46.762Z,78.24
2022-12-03T20:51:17.777Z,78.19
2022-12-03T20:53:50.143Z,78.11
2022-12-03T20:56:22.251Z,78.19
2022-12-03T20:58:54.053Z,78.07
2022-12-03T21:01:25.525Z,78.13
2022-12-03T21:03:56.778Z,78.15
2022-12-03T21:06:30.425Z,78.22
2022-12-03T21:09:00.218Z,78.12
2022-12-03T21:11:40.961Z,78.19
2022-12-03T21:14:10.892Z,78.23
2022-12-03T21:19:30.500Z,78.06
2022-12-03T21:21:59.463Z,78.21
2022-12-03T21:24:28.068Z,78.20
2022-12-03T21:26:58.170Z,78.17
2022-12-03T21:29:27.096Z,78.10
2022-12-03T21:31:55.691Z,78.09
2022-12-03T21:34:24.434Z,78.05
2022-12-03T21:36:53.633Z,78.21
2022-12-03T21:39:22.222Z,78.15
2022-12-03T21:42:18.929Z,78.27
2022-12-03T21:44:40.106Z,78.22
2022-12-03T21:47:14.347Z,78.17
2022-12-03T21:49:46.384Z,78.15
2022-12-03T21:52:16.792Z,78.14
2022-12-03T21:54:46.413Z,77.98
2022-12-03T21:57:15.235Z,78.20
2022-12-03T21:59:48.613Z,78.26
2022-12-03T22:02:20.085Z,78.25
2022-12-03T22:04:53.405Z,78.20
2022-12-03T22:07:22.110Z,78.18
2022-12-03T22:09:51.161Z,78.20
2022-12-03T22:12:19.803Z,78.27
2022-12-03T22:14:48.796Z,78.23
2022-12-03T22:17:20.100Z,78.20
2022-12-03T22:19:54.490Z,78.27
2022-12-03T22:22:23.851Z,78.39
2022-12-03T22:24:52.516Z,78.34
2022-12-03T22:27:21.516Z,78.36
2022-12-03T22:29:52.602Z,78.34
2022-12-03T22:32:23.199Z,78.43
2022-12-03T22:34:52.279Z,78.29
2022-12-03T22:37:20.943Z,78.30
2022-12-03T22:39:49.791Z,78.41
2022-12-03T22:42:20.828Z,78.30
2022-12-03T22:44:50.062Z,78.28
2022-12-03T22:47:19.010Z,78.38
2022-12-03T22:49:47.473Z,78.30
2022-12-03T22:52:16.061Z,78.31
2022-12-03T22:54:46.035Z,78.27
2022-12-03T22:57:17.238Z,78.26
2022-12-03T22:59:45.833Z,78.26
2022-12-03T23:02:16.703Z,78.29
2022-12-03T23:04:46.163Z,78.50
2022-12-03T23:07:15.076Z,78.29
2022-12-03T23:09:47.436Z,78.33
2022-12-03T23:12:18.277Z,78.23
2022-12-03T23:14:46.729Z,78.35
2022-12-03T23:17:15.223Z,78.49
2022-12-03T23:19:44.307Z,78.42
2022-12-03T23:22:12.998Z,78.41
2022-12-03T23:24:41.594Z,78.34
2022-12-03T23:27:10.906Z,78.37
2022-12-03T23:29:39.317Z,78.37
2022-12-03T23:32:13.415Z,78.44
2022-12-03T23:34:43.923Z,78.33
2022-12-03T23:37:12.308Z,78.35
2022-12-03T23:39:40.971Z,78.49
2022-12-03T23:42:10.580Z,78.43
2022-12-03T23:44:39.005Z,78.48
2022-12-03T23:47:07.723Z,78.46
2022-12-03T23:49:36.556Z,78.31
2022-12-03T23:52:05.303Z,78.40
2022-12-03T23:54:34.314Z,78.53
2022-12-03T23:57:03.149Z,78.47
2022-12-03T23:59:33.257Z,78.44
